Mariq — SVA2152 — position and weather

sailwx.info

Track history (hours):
 
Tides and Currents Weather Stations Pressure Air Temp Water Temp Dewpoint Dewpoint Depression Visibility Wind Speed Wind Dir Waves Ship Positions

Mariq

Last reported at 2014-Oct-19 22:31 UTC. Time now 2014-Oct-20 04:27 UTC.
Position N 36°46' E 024°33'.

Length 57 m.

Type: Tanker. MMSI: 239758424.

Date/timePositionNaut miles runAvg speedWind from/ knotsBaromVisibWave heightAir tempDewpointWater temp
2014-Oct-19 22:31N 36°46' E 024°33'0 0.0
2014-Oct-19 21:33N 36°46' E 024°33'0 0.0
2014-Oct-19 20:33N 36°46' E 024°33'0 0.0
2014-Oct-19 19:33N 36°46' E 024°33'0 0.0
2014-Oct-19 18:33N 36°46' E 024°33'0 0.0
2014-Oct-19 17:32N 36°46' E 024°33'0 0.0
2014-Oct-19 16:33N 36°46' E 024°33'0 0.0
2014-Oct-19 15:33N 36°46' E 024°33'0 0.0
2014-Oct-19 14:33N 36°46' E 024°33'0 0.0
2014-Oct-19 13:33N 36°46' E 024°33'0 0.0
2014-Oct-19 12:33N 36°46' E 024°33'0 0.0
2014-Oct-19 11:33N 36°46' E 024°33'0 0.0
2014-Oct-19 10:33N 36°46' E 024°33'0 0.0
2014-Oct-19 09:33N 36°46' E 024°33'1 0.5
2014-Oct-19 08:33N 36°46' E 024°34'1 1.0
2014-Oct-19 07:10N 36°47' E 024°35'0 0.0
2014-Oct-19 06:33N 36°47' E 024°35'0 0.0
2014-Oct-19 00:30N 36°47' E 024°35'0 0.0
2014-Oct-18 23:20N 36°47' E 024°35'0 0.0
2014-Oct-18 22:32N 36°47' E 024°35'0 0.0
2014-Oct-18 21:32N 36°47' E 024°35'0 0.0
2014-Oct-18 20:33N 36°47' E 024°35'0 0.0
2014-Oct-18 19:08N 36°47' E 024°35'0 0.0
2014-Oct-18 18:30N 36°47' E 024°35'1 1.1
2014-Oct-18 17:33N 36°47' E 024°36'7 6.9
2014-Oct-18 16:33N 36°54' E 024°33'9 8.8
2014-Oct-18 15:31N 37°02' E 024°27'11 9.4
2014-Oct-18 14:22N 37°11' E 024°21'810.1
2014-Oct-18 13:33N 37°19' E 024°17'14 9.9
2014-Oct-18 12:10N 37°31' E 024°10'3 0.3
2014-Oct-18 00:29N 37°34' E 024°11'11 8.7
2014-Oct-17 23:11N 37°30' E 024°24'6 9.1
2014-Oct-17 22:33N 37°28' E 024°31'9 8.6
2014-Oct-17 21:33N 37°25' E 024°41'10 9.7
2014-Oct-17 20:29N 37°21' E 024°53'1110.1
2014-Oct-17 19:23N 37°18' E 025°07'810.1
2014-Oct-17 18:33N 37°17' E 025°17'1010.2
2014-Oct-17 17:32N 37°14' E 025°30'9 8.9
2014-Oct-17 16:33N 37°10' E 025°39'10 9.5
2014-Oct-17 15:33N 37°03' E 025°48'10 9.6
2014-Oct-17 14:33N 36°56' E 025°55'3 3.0
2014-Oct-17 13:33N 36°54' E 025°59'0 0.0
2014-Oct-17 12:16N 36°54' E 025°59'0 0.0
2014-Oct-17 11:32N 36°54' E 025°59'0 0.0
2014-Oct-17 10:28N 36°54' E 025°59'0 0.0
2014-Oct-17 09:33N 36°54' E 025°59'0 0.0
2014-Oct-17 08:32N 36°54' E 025°59'5 5.3
2014-Oct-17 07:33N 36°54' E 025°52'4 0.3
2014-Oct-16 19:31N 36°50' E 025°52'0 0.0
2014-Oct-16 18:22N 36°50' E 025°52'0 0.0
2014-Oct-16 17:26N 36°50' E 025°52'0 0.2
2014-Oct-16 16:33N 36°50' E 025°52'7 7.4
2014-Oct-16 15:33N 36°55' E 025°46'10 9.8
2014-Oct-16 14:33N 37°04' E 025°40'1010.3
2014-Oct-16 13:33N 37°13' E 025°33'10 9.6
2014-Oct-16 12:33N 37°16' E 025°21'10 9.8
2014-Oct-16 11:33N 37°18' E 025°09'9 9.4
2014-Oct-16 10:33N 37°20' E 024°58'1010.1
2014-Oct-16 09:33N 37°24' E 024°46'1010.2
2014-Oct-16 08:33N 37°27' E 024°34'28 2.8
2014-Oct-15 22:26N 37°42' E 024°04'0 0.0
2014-Oct-15 21:26N 37°42' E 024°04'18 4.6
2014-Oct-15 17:32N 37°31' E 024°22'1010.3
2014-Oct-15 16:33N 37°32' E 024°35'1110.6
2014-Oct-15 15:33N 37°32' E 024°48'1010.4
2014-Oct-15 14:33N 37°31' E 025°01'1010.0
2014-Oct-15 13:33N 37°31' E 025°13'1010.4
2014-Oct-15 12:33N 37°31' E 025°27'1010.3
2014-Oct-15 11:33N 37°29' E 025°39'1010.3
2014-Oct-15 10:33N 37°29' E 025°53'1110.6
2014-Oct-15 09:33N 37°29' E 026°06'1010.5
2014-Oct-15 08:33N 37°28' E 026°19'1010.2
2014-Oct-15 07:33N 37°27' E 026°32'1010.2
2014-Oct-15 06:33N 37°26' E 026°45'7 0.3
2014-Oct-14 06:33N 37°20' E 026°40'3 0.5
2014-Oct-13 23:30N 37°19' E 026°36'33 1.0
2014-Oct-12 15:30N 36°46' E 026°30'1010.5
2014-Oct-12 14:33N 36°50' E 026°19'1111.0
2014-Oct-12 13:33N 36°55' E 026°07'8 7.6
2014-Oct-12 12:33N 36°54' E 025°57'1 1.0
2014-Oct-12 11:33N 36°54' E 025°59'0 0.0
2014-Oct-12 10:33N 36°54' E 025°59'0 0.0
2014-Oct-12 09:33N 36°54' E 025°59'0 0.0
2014-Oct-12 08:33N 36°54' E 025°59'0 0.0
2014-Oct-12 07:33N 36°54' E 025°59'0 0.0
2014-Oct-12 06:33N 36°54' E 025°59'0 0.0
2014-Oct-12 05:33N 36°54' E 025°59'5 4.5
2014-Oct-12 04:33N 36°54' E 025°53'4 1.4
2014-Oct-12 01:31N 36°50' E 025°52'0 0.0
2014-Oct-11 17:07N 36°50' E 025°52'2 2.8
2014-Oct-11 16:33N 36°50' E 025°50'9 8.9
2014-Oct-11 15:33N 36°52' E 025°39'9 8.7
2014-Oct-11 14:33N 36°54' E 025°28'8 8.3
2014-Oct-11 13:33N 36°59' E 025°20'9 9.2
2014-Oct-11 12:33N 37°08' E 025°20'8 8.4
2014-Oct-11 11:33N 37°15' E 025°14'9 8.6
2014-Oct-11 10:33N 37°19' E 025°04'9 8.9
2014-Oct-11 09:33N 37°21' E 024°53'9 8.9
2014-Oct-11 08:33N 37°25' E 024°43'9 8.9
2014-Oct-11 07:33N 37°28' E 024°33'9 8.5
2014-Oct-11 06:33N 37°30' E 024°22'9 8.2
2014-Oct-11 05:30N 37°34' E 024°13'26 1.7
2014-Oct-10 13:33N 37°42' E 023°41'1110.7
2014-Oct-10 12:33N 37°52' E 023°36'9 8.9
2014-Oct-10 11:33N 38°01' E 023°35'1 1.1
2014-Oct-10 10:33N 38°02' E 023°36'0 0.0
2014-Oct-10 09:33N 38°02' E 023°36'0 0.0
2014-Oct-10 08:33N 38°02' E 023°36'  
Track history (hours):
 
Tides and Currents Weather Stations Pressure Air Temp Water Temp Dewpoint Dewpoint Depression Visibility Wind Speed Wind Dir Waves Ship Positions

Mariq

Last reported at 2014-Oct-19 22:31 UTC. Time now 2014-Oct-20 04:27 UTC.
Position N 36°46' E 024°33'.

Length 57 m.

Type: Tanker. MMSI: 239758424.

Date/timePositionNaut miles runAvg speedWind from/ knotsBaromVisibWave heightAir tempDewpointWater temp
2014-Oct-19 22:31N 36°46' E 024°33'0 0.0
2014-Oct-19 21:33N 36°46' E 024°33'0 0.0
2014-Oct-19 20:33N 36°46' E 024°33'0 0.0
2014-Oct-19 19:33N 36°46' E 024°33'0 0.0
2014-Oct-19 18:33N 36°46' E 024°33'0 0.0
2014-Oct-19 17:32N 36°46' E 024°33'0 0.0
2014-Oct-19 16:33N 36°46' E 024°33'0 0.0
2014-Oct-19 15:33N 36°46' E 024°33'0 0.0
2014-Oct-19 14:33N 36°46' E 024°33'0 0.0
2014-Oct-19 13:33N 36°46' E 024°33'0 0.0
2014-Oct-19 12:33N 36°46' E 024°33'0 0.0
2014-Oct-19 11:33N 36°46' E 024°33'0 0.0
2014-Oct-19 10:33N 36°46' E 024°33'0 0.0
2014-Oct-19 09:33N 36°46' E 024°33'1 0.5
2014-Oct-19 08:33N 36°46' E 024°34'1 1.0
2014-Oct-19 07:10N 36°47' E 024°35'0 0.0
2014-Oct-19 06:33N 36°47' E 024°35'0 0.0
2014-Oct-19 00:30N 36°47' E 024°35'0 0.0
2014-Oct-18 23:20N 36°47' E 024°35'0 0.0
2014-Oct-18 22:32N 36°47' E 024°35'0 0.0
2014-Oct-18 21:32N 36°47' E 024°35'0 0.0
2014-Oct-18 20:33N 36°47' E 024°35'0 0.0
2014-Oct-18 19:08N 36°47' E 024°35'0 0.0
2014-Oct-18 18:30N 36°47' E 024°35'1 1.1
2014-Oct-18 17:33N 36°47' E 024°36'7 6.9
2014-Oct-18 16:33N 36°54' E 024°33'9 8.8
2014-Oct-18 15:31N 37°02' E 024°27'11 9.4
2014-Oct-18 14:22N 37°11' E 024°21'810.1
2014-Oct-18 13:33N 37°19' E 024°17'14 9.9
2014-Oct-18 12:10N 37°31' E 024°10'3 0.3
2014-Oct-18 00:29N 37°34' E 024°11'11 8.7
2014-Oct-17 23:11N 37°30' E 024°24'6 9.1
2014-Oct-17 22:33N 37°28' E 024°31'9 8.6
2014-Oct-17 21:33N 37°25' E 024°41'10 9.7
2014-Oct-17 20:29N 37°21' E 024°53'1110.1
2014-Oct-17 19:23N 37°18' E 025°07'810.1
2014-Oct-17 18:33N 37°17' E 025°17'1010.2
2014-Oct-17 17:32N 37°14' E 025°30'9 8.9
2014-Oct-17 16:33N 37°10' E 025°39'10 9.5
2014-Oct-17 15:33N 37°03' E 025°48'10 9.6
2014-Oct-17 14:33N 36°56' E 025°55'3 3.0
2014-Oct-17 13:33N 36°54' E 025°59'0 0.0
2014-Oct-17 12:16N 36°54' E 025°59'0 0.0
2014-Oct-17 11:32N 36°54' E 025°59'0 0.0
2014-Oct-17 10:28N 36°54' E 025°59'0 0.0
2014-Oct-17 09:33N 36°54' E 025°59'0 0.0
2014-Oct-17 08:32N 36°54' E 025°59'5 5.3
2014-Oct-17 07:33N 36°54' E 025°52'4 0.3
2014-Oct-16 19:31N 36°50' E 025°52'0 0.0
2014-Oct-16 18:22N 36°50' E 025°52'0 0.0
2014-Oct-16 17:26N 36°50' E 025°52'0 0.2
2014-Oct-16 16:33N 36°50' E 025°52'7 7.4
2014-Oct-16 15:33N 36°55' E 025°46'10 9.8
2014-Oct-16 14:33N 37°04' E 025°40'1010.3
2014-Oct-16 13:33N 37°13' E 025°33'10 9.6
2014-Oct-16 12:33N 37°16' E 025°21'10 9.8
2014-Oct-16 11:33N 37°18' E 025°09'9 9.4
2014-Oct-16 10:33N 37°20' E 024°58'1010.1
2014-Oct-16 09:33N 37°24' E 024°46'1010.2
2014-Oct-16 08:33N 37°27' E 024°34'28 2.8
2014-Oct-15 22:26N 37°42' E 024°04'0 0.0
2014-Oct-15 21:26N 37°42' E 024°04'18 4.6
2014-Oct-15 17:32N 37°31' E 024°22'1010.3
2014-Oct-15 16:33N 37°32' E 024°35'1110.6
2014-Oct-15 15:33N 37°32' E 024°48'1010.4
2014-Oct-15 14:33N 37°31' E 025°01'1010.0
2014-Oct-15 13:33N 37°31' E 025°13'1010.4
2014-Oct-15 12:33N 37°31' E 025°27'1010.3
2014-Oct-15 11:33N 37°29' E 025°39'1010.3
2014-Oct-15 10:33N 37°29' E 025°53'1110.6
2014-Oct-15 09:33N 37°29' E 026°06'1010.5
2014-Oct-15 08:33N 37°28' E 026°19'1010.2
2014-Oct-15 07:33N 37°27' E 026°32'1010.2
2014-Oct-15 06:33N 37°26' E 026°45'7 0.3
2014-Oct-14 06:33N 37°20' E 026°40'3 0.5
2014-Oct-13 23:30N 37°19' E 026°36'33 1.0
2014-Oct-12 15:30N 36°46' E 026°30'1010.5
2014-Oct-12 14:33N 36°50' E 026°19'1111.0
2014-Oct-12 13:33N 36°55' E 026°07'8 7.6
2014-Oct-12 12:33N 36°54' E 025°57'1 1.0
2014-Oct-12 11:33N 36°54' E 025°59'0 0.0
2014-Oct-12 10:33N 36°54' E 025°59'0 0.0
2014-Oct-12 09:33N 36°54' E 025°59'0 0.0
2014-Oct-12 08:33N 36°54' E 025°59'0 0.0
2014-Oct-12 07:33N 36°54' E 025°59'0 0.0
2014-Oct-12 06:33N 36°54' E 025°59'0 0.0
2014-Oct-12 05:33N 36°54' E 025°59'5 4.5
2014-Oct-12 04:33N 36°54' E 025°53'4 1.4
2014-Oct-12 01:31N 36°50' E 025°52'0 0.0
2014-Oct-11 17:07N 36°50' E 025°52'2 2.8
2014-Oct-11 16:33N 36°50' E 025°50'9 8.9
2014-Oct-11 15:33N 36°52' E 025°39'9 8.7
2014-Oct-11 14:33N 36°54' E 025°28'8 8.3
2014-Oct-11 13:33N 36°59' E 025°20'9 9.2
2014-Oct-11 12:33N 37°08' E 025°20'8 8.4
2014-Oct-11 11:33N 37°15' E 025°14'9 8.6
2014-Oct-11 10:33N 37°19' E 025°04'9 8.9
2014-Oct-11 09:33N 37°21' E 024°53'9 8.9
2014-Oct-11 08:33N 37°25' E 024°43'9 8.9
2014-Oct-11 07:33N 37°28' E 024°33'9 8.5
2014-Oct-11 06:33N 37°30' E 024°22'9 8.2
2014-Oct-11 05:30N 37°34' E 024°13'26 1.7
2014-Oct-10 13:33N 37°42' E 023°41'1110.7
2014-Oct-10 12:33N 37°52' E 023°36'9 8.9
2014-Oct-10 11:33N 38°01' E 023°35'1 1.1
2014-Oct-10 10:33N 38°02' E 023°36'0 0.0
2014-Oct-10 09:33N 38°02' E 023°36'0 0.0
2014-Oct-10 08:33N 38°02' E 023°36'  

Dump ship's entire track history